Weather at Ken Jones Airport

Public forecast

Using degrees Celsius for public forecast. Weather courtesy of forecast.io.

Closest aviation weather report (METAR) to Ken Jones Airport

Closest report is Norman Manley International Airport, 21.4 nm (39.6 km) SW.

2023/02/01 06:00 (retrieved 53 minutes ago)

MKJP 010600Z 36006KT 9999 FEW022 25/21 Q1016

Closest aviation forecast (TAF) to Ken Jones Airport

Closest forecast is Norman Manley International Airport, 21.4 nm (39.6 km) SW.

2023/02/01 06:17 (retrieved 36 minutes ago)

TAF MKJP 010515Z 0106/0206 VRB05KT 9999 FEW022 BECMG 0115/0117 15016KT BECMG 0200/0202 34006KT